createdAt,value
2023-01-28T00:00:36.949Z,79.0
2023-01-28T00:05:36.946Z,78.9
2023-01-28T00:10:36.956Z,77.3
2023-01-28T00:20:36.962Z,80.2
2023-01-28T00:25:36.954Z,75.6
2023-01-28T00:30:37.007Z,74.6
2023-01-28T00:40:37.001Z,78.7
2023-01-28T00:50:36.960Z,76.2
2023-01-28T01:00:36.986Z,77.9
2023-01-28T01:05:38.462Z,78.9
2023-01-28T01:15:37.026Z,76.9
2023-01-28T01:20:36.984Z,77.0
2023-01-28T01:25:36.978Z,73.7
2023-01-28T01:45:36.965Z,75.3
2023-01-28T02:00:36.963Z,76.0
2023-01-28T02:05:36.945Z,76.1
2023-01-28T02:10:36.951Z,76.6
2023-01-28T02:15:36.960Z,79.1
2023-01-28T02:25:36.955Z,76.1
2023-01-28T02:40:36.991Z,77.2
2023-01-28T02:45:36.973Z,80.5
2023-01-28T02:50:36.954Z,76.9
2023-01-28T02:55:36.983Z,76.7
2023-01-28T03:00:36.980Z,76.4
2023-01-28T03:10:36.986Z,76.3
2023-01-28T03:15:37.005Z,76.7
2023-01-28T03:20:37.007Z,76.6
2023-01-28T03:25:37.003Z,78.0
2023-01-28T03:30:36.998Z,77.5
2023-01-28T03:35:36.985Z,77.9
2023-01-28T03:40:36.969Z,77.1
2023-01-28T03:45:36.988Z,78.2
2023-01-28T03:55:37.042Z,78.4
2023-01-28T04:00:37.004Z,78.4
2023-01-28T04:05:36.984Z,77.9
2023-01-28T04:10:36.971Z,78.0
2023-01-28T04:15:36.976Z,75.5
2023-01-28T04:20:36.976Z,76.0
2023-01-28T04:25:37.012Z,75.4
2023-01-28T04:30:37.097Z,74.5
2023-01-28T04:35:36.982Z,75.6
2023-01-28T04:40:36.990Z,74.6
2023-01-28T04:45:38.105Z,72.2
2023-01-28T04:50:36.991Z,72.2
2023-01-28T05:05:37.028Z,74.0
2023-01-28T05:15:37.020Z,74.1
2023-01-28T05:25:37.020Z,73.7
2023-01-28T05:30:37.098Z,73.4
2023-01-28T05:40:37.005Z,75.5
2023-01-28T05:45:37.085Z,73.3
2023-01-28T05:50:37.037Z,75.5
2023-01-28T06:00:37.019Z,72.7
2023-01-28T06:05:37.101Z,72.5
2023-01-28T06:15:37.027Z,73.5
2023-01-28T06:20:36.994Z,72.2
2023-01-28T06:30:37.034Z,71.0
2023-01-28T06:35:37.022Z,71.2
2023-01-28T06:40:37.009Z,73.3
2023-01-28T06:45:37.013Z,74.2
2023-01-28T06:55:37.014Z,72.7
2023-01-28T07:10:37.018Z,73.4
2023-01-28T07:30:37.028Z,73.9
2023-01-28T07:35:37.052Z,74.8
2023-01-28T07:40:37.043Z,71.2
2023-01-28T07:45:37.058Z,71.1
2023-01-28T07:50:37.302Z,71.1
2023-01-28T07:55:37.059Z,73.7
2023-01-28T08:05:37.061Z,72.3
2023-01-28T08:10:37.047Z,74.4
2023-01-28T08:20:37.051Z,74.6
2023-01-28T08:25:38.526Z,73.0
2023-01-28T08:35:37.035Z,70.8
2023-01-28T08:45:37.049Z,70.1
2023-01-28T09:00:37.035Z,73.1
2023-01-28T09:05:37.074Z,70.9
2023-01-28T09:10:37.033Z,73.6
2023-01-28T09:20:37.061Z,72.4
2023-01-28T09:25:37.069Z,70.8
2023-01-28T09:35:37.065Z,70.5
2023-01-28T09:45:37.078Z,70.7
2023-01-28T09:50:37.059Z,74.4
2023-01-28T09:55:37.070Z,69.9
2023-01-28T10:10:37.063Z,71.0
2023-01-28T10:20:37.045Z,70.8
2023-01-28T10:25:37.111Z,68.9
2023-01-28T10:30:37.114Z,68.9
2023-01-28T10:35:37.059Z,72.3
2023-01-28T10:40:37.089Z,67.6
2023-01-28T10:50:38.677Z,71.7
2023-01-28T10:55:37.067Z,71.7
2023-01-28T11:05:37.067Z,68.5
2023-01-28T11:10:37.083Z,71.7
2023-01-28T11:15:38.521Z,57.7
2023-01-28T11:20:37.087Z,57.7
2023-01-28T11:25:37.105Z,57.9
2023-01-28T11:30:37.166Z,58.5
2023-01-28T11:35:37.064Z,57.3
2023-01-28T11:40:37.076Z,54.6
2023-01-28T11:55:37.099Z,51.0
2023-01-28T12:00:37.093Z,53.2
2023-01-28T12:05:37.099Z,50.4
2023-01-28T12:10:37.130Z,49.6
2023-01-28T12:15:37.130Z,47.8
2023-01-28T12:20:37.073Z,54.9
2023-01-28T12:25:37.085Z,58.3
2023-01-28T12:30:37.075Z,62.4
2023-01-28T12:35:37.088Z,66.1
2023-01-28T12:40:37.069Z,64.8
2023-01-28T12:45:37.105Z,69.3
2023-01-28T12:50:37.105Z,66.9
2023-01-28T13:05:37.079Z,68.7
2023-01-28T13:10:37.086Z,66.6
2023-01-28T13:20:37.080Z,67.6
2023-01-28T13:25:37.180Z,71.0
2023-01-28T13:30:37.168Z,71.8
2023-01-28T13:35:37.107Z,68.9
2023-01-28T13:40:37.116Z,69.6
2023-01-28T13:45:37.134Z,70.2
2023-01-28T13:50:37.111Z,71.7
2023-01-28T13:55:43.607Z,70.1
2023-01-28T14:00:37.128Z,68.8
2023-01-28T14:15:37.158Z,70.2
2023-01-28T14:25:37.116Z,71.2
2023-01-28T14:30:37.168Z,66.2
2023-01-28T14:35:37.128Z,66.2
2023-01-28T14:40:37.118Z,66.5
2023-01-28T14:45:37.103Z,70.9
2023-01-28T14:50:39.828Z,70.3
2023-01-28T14:55:38.223Z,71.8
2023-01-28T15:00:37.133Z,71.8
2023-01-28T15:05:37.118Z,71.2
2023-01-28T15:10:37.140Z,69.5
2023-01-28T15:15:37.125Z,67.6
2023-01-28T15:20:37.139Z,72.5
2023-01-28T15:25:37.144Z,69.8
2023-01-28T15:30:37.176Z,69.8
2023-01-28T15:35:37.132Z,72.8
2023-01-28T15:40:37.472Z,72.8
2023-01-28T15:45:37.140Z,72.8
2023-01-28T15:50:37.115Z,72.2
2023-01-28T15:55:37.147Z,72.8
2023-01-28T16:00:37.203Z,73.1
2023-01-28T16:05:37.147Z,75.3
2023-01-28T16:10:37.149Z,76.1
2023-01-28T16:15:37.117Z,76.9
2023-01-28T16:20:37.116Z,75.6
2023-01-28T16:25:37.131Z,78.8
2023-01-28T16:30:37.519Z,79.7
2023-01-28T16:35:57.153Z,79.7
2023-01-28T16:40:37.120Z,80.3
2023-01-28T16:45:37.111Z,82.2
2023-01-28T16:50:37.123Z,82.3
2023-01-28T16:55:37.129Z,81.6
2023-01-28T17:05:37.142Z,81.0
2023-01-28T17:10:37.149Z,81.3
2023-01-28T17:20:37.150Z,77.8
2023-01-28T17:25:37.166Z,76.8
2023-01-28T17:30:38.469Z,75.9
2023-01-28T17:35:37.186Z,75.3
2023-01-28T17:45:37.196Z,75.9
2023-01-28T17:50:37.171Z,75.5
2023-01-28T18:00:37.169Z,74.8
2023-01-28T18:10:38.460Z,73.7
2023-01-28T18:15:37.168Z,73.7
2023-01-28T18:25:37.509Z,74.4
2023-01-28T18:30:37.209Z,74.4
2023-01-28T18:35:37.147Z,77.4
2023-01-28T18:40:37.151Z,77.1
2023-01-28T18:55:37.183Z,76.2
2023-01-28T19:10:37.160Z,76.5
2023-01-28T19:15:37.184Z,77.7
2023-01-28T19:20:37.144Z,77.7
2023-01-28T19:25:37.154Z,79.7
2023-01-28T19:30:37.182Z,77.9
2023-01-28T19:35:37.155Z,77.5
2023-01-28T19:55:37.159Z,78.8
2023-01-28T20:00:37.200Z,81.0
2023-01-28T20:10:37.201Z,79.7
2023-01-28T20:15:37.344Z,79.0
2023-01-28T20:20:37.197Z,79.5
2023-01-28T20:30:37.280Z,79.6
2023-01-28T20:40:37.192Z,79.0
2023-01-28T20:55:37.196Z,79.6
2023-01-28T21:05:37.204Z,79.7
2023-01-28T21:15:37.214Z,80.5
2023-01-28T21:20:37.206Z,81.0
2023-01-28T21:40:37.180Z,81.7
2023-01-28T21:50:37.179Z,81.8
2023-01-28T22:05:37.191Z,82.1
2023-01-28T22:10:37.177Z,81.8
2023-01-28T22:15:37.186Z,82.1
2023-01-28T22:20:37.193Z,82.0
2023-01-28T22:25:37.221Z,82.5
2023-01-28T22:35:37.209Z,82.9
2023-01-28T22:40:37.221Z,82.8
2023-01-28T22:45:37.226Z,82.8
2023-01-28T22:50:37.226Z,82.9
2023-01-28T22:55:37.202Z,84.1
2023-01-28T23:00:37.266Z,83.8
2023-01-28T23:05:37.231Z,83.8
2023-01-28T23:10:37.237Z,82.9
2023-01-28T23:15:37.224Z,82.0
2023-01-28T23:25:37.257Z,82.0
2023-01-28T23:35:37.214Z,81.9
2023-01-28T23:40:37.202Z,82.2
2023-01-28T23:55:37.232Z,81.0
